events-overview

Kinetic Half

 

Overall Women

Lake Anna State Park - Spotsylvania, VA 5/10/2014 07:00AM

** Results are for the private use of participants and are the Intellectual Property of Set Up Events. Unauthorized use of these results is prohibited.

Place Bib Co Ag S NAME city/state Rank SWIM Rank T1 Rank Bike Rank T2 Rank RUN PENALTY TIME DQ
1180 29FSarah BreevoortCharlottesville VA1700:33:211000:02:22602:40:201400:01:32301:38:16 04:55:48 
2108 29FBrielle DanaRockville MD2200:34:101300:02:321402:44:53500:01:12401:40:01 05:02:47 
3324 43FLaura WhitlowRoanoke VA300:27:418100:04:021002:43:116700:02:481101:46:2400:04:0005:08:04 
467 37FErin WreskiVirginia Beach VA3300:36:131400:02:331202:43:491100:01:26701:44:04 05:08:05 
599 27FHolli FinnerenWashington DC5200:37:57300:02:05202:36:36100:00:591601:52:43 05:10:17 
6174 33FMacKenzie YatesWashington DC1900:33:51400:02:061802:47:06600:01:191201:46:25 05:10:45 
720 33FElisha CookChesapeake VA4600:37:111700:02:381502:45:50200:01:05901:45:32 05:12:14 
8203 42FKasha WilliamsonFairfax VA5100:37:551200:02:301302:43:553000:01:531301:48:33 05:14:43 
9251 43FTjede McVeyLandenberg PA2900:35:101100:02:241102:43:412500:01:511501:52:31 05:15:34 
10169 44FOlwen HuxleyWashington DC1000:31:082100:02:42402:39:51800:01:243602:01:50 05:16:53 
1143 31FAllie SilvermanWashington DC4300:36:515400:03:313202:53:542100:01:45801:44:26 05:20:25 
12402 42FKristin McCannAlexandria VA8300:41:473700:03:103502:56:292000:01:44201:38:06 05:21:14 
1326 33FBethann SliwaWashington DC7400:40:501900:02:392602:50:591300:01:291001:45:38 05:21:33 
14262 38FCarol CohenArlington VA8500:41:512800:02:543402:55:161600:01:34501:40:54 05:22:27 
15163 29FChristina NuttingWashington DC1200:31:57700:02:112902:52:57400:01:121901:54:30 05:22:44 
16390 56FDebi BernardesKing George VA1500:32:49800:02:173102:53:336200:02:432101:55:03 05:26:22 
17129 48FJuda McGannonHunt Valley MD2500:34:415300:03:293802:57:081200:01:271401:49:42 05:26:26 
18341 47FStephenie WinterWrightsville Beach NC3500:36:17600:02:101602:46:004900:02:223002:00:00 05:26:47 
19139 37FJulie ParksAlexandria VA2800:35:092000:02:403002:53:17900:01:242201:55:12 05:27:40 
20274 43FMichelle JoubranWashington DC1300:32:003000:02:552302:50:142300:01:483502:01:46 05:28:41 
21396 48FDiana LohmeyerVienna VA2700:35:071800:02:393302:54:343100:01:562301:55:22 05:29:37 
22373 55FSusan SwansonNorfolk VA2400:34:39900:02:222502:50:58300:01:073902:03:47 05:32:51 
23378 34FErin GreenWilmington NC1800:33:216000:03:403702:57:061900:01:382701:58:25 05:34:09 
24347 45FChristy JonesFayetteville NC9100:42:2310800:05:067103:10:459100:04:02101:32:04 05:34:17Y
25188 42FJennifer BoyntonAlexandria VA4700:37:151600:02:372702:52:151700:01:353302:01:31 05:35:11 
26100 28FSarah ThomasVirginia Beach VA400:28:032200:02:421902:47:328100:03:155602:14:22 05:35:52 
27311 55FMary Catherine MalinMcLean VA2000:33:532900:02:554303:01:101000:01:242401:56:41 05:36:02 
28377 42FMisty BrownWilmington NC1600:32:542500:02:492202:49:242700:01:514902:10:32 05:37:27 
29294 26FStevie SmithWashington DC2300:34:266700:03:474503:01:174800:02:212501:57:16 05:39:06 
30334 22FAlyssa KasherCarmel IN800:30:543200:02:585103:04:152600:01:513402:01:45 05:41:42 
PlaceBibCoAgSNAMEcity/stateRankSWIMRankT1RankBikeRankT2RankRUNPENALTYTIMEDQ
31217 30FCaroline RinellaLynchburg VA3600:36:207700:04:002802:52:346800:02:494302:06:37 05:42:17 
3218MF30FJessica JohnsonBethesda MD4100:36:415600:03:345903:06:205700:02:351701:53:39 05:42:46 
33469A42FMichele BullEldersburg MD8100:41:318700:04:122102:49:026500:02:464602:08:29 05:45:58 
34397 48FMary Lynn HansenWoodstock MD6100:39:163300:03:031702:46:052200:01:486302:19:43 05:49:54 
35225 49FJulie KennedyFalls Church VA10200:43:524600:03:234203:00:381500:01:333102:00:52 05:50:16 
3633 31FLillian ThomasGermantown MD100:27:212300:02:458203:14:082900:01:514102:05:17 05:51:22 
37272 31FMolly GiammarcoWashington DC6000:39:107100:03:538303:15:00     05:51:22 
38323 47FB. Lynn FollansbeeBethesda MD6300:39:328300:04:085403:04:50     05:51:42 
39106 30FAllison NordbergWashington DC5000:37:464100:03:186803:09:308700:03:442601:57:51 05:52:06 
40333 31FKim KellyAlexandria VA6600:40:158500:04:127603:12:412800:01:511801:54:17 05:53:14 
4123 35FKristin HerringNewport News VA8400:41:4912100:05:509503:21:365600:02:32601:43:23 05:55:08 
42245 27FCasey CrowleyRockville MD4000:36:329200:04:174103:00:355800:02:365002:11:26 05:55:24 
4334 36FCherie BurnetteHerndon VA5500:38:284900:03:268703:17:349800:04:422001:54:41 05:58:49 
44199 43FKristin SwiftSt Marys City MD7700:41:139300:04:186203:07:334400:02:173802:03:46 05:59:06 
45115 35FElaine WongGaithersburg MD1100:31:1212300:06:106703:09:187500:03:054802:09:32 05:59:14 
4678 38FSara SwensonReston VA900:30:562400:02:463902:57:19700:01:238102:29:17 06:01:40 
47146 52FJoanna SchmickelArlington VA7800:41:189700:04:308403:15:024000:02:142901:59:19 06:02:21 
48194 46FMary PickeringArlington VA5300:37:592600:02:516603:08:542400:01:495202:12:16 06:03:47 
49337 45FMelissa UpchurchChurch Road VA7300:40:4511800:05:327203:10:547400:03:044202:05:25 06:05:38 
5030 29FLaura ManciniArlington VA3900:36:279600:04:298003:13:414500:02:184702:09:17 06:06:12 
51206 31FJanice KwaWashington DC5700:38:396300:03:434903:03:467200:03:026102:18:49 06:07:57 
52332 52FKristina AmentAlexandria VA10500:44:389100:04:172402:50:399500:04:237302:24:10 06:08:05 
53126 31FVictoria HoughtonNorth Bethesda MD4800:37:1712200:05:528103:14:089400:04:154402:07:14 06:08:44 
54318 34FSari LongWashington DC11700:47:4210400:04:437003:10:256000:02:394002:04:19 06:09:47 
55148 43FHillary HertlerWashington DC3100:35:367200:03:557903:13:328800:03:455302:13:25 06:10:11 
56167 41FTracey MelnickWashington DC11600:47:415900:03:399203:20:583500:02:012801:58:30 06:12:47 
5728 32FElysia MahjoubBaltimore MD9000:42:118200:04:035503:05:104600:02:196802:20:59 06:14:40 
58321 22FAlexandria GagnonLexington VA6400:39:569000:04:157403:11:107300:03:045902:16:36 06:14:58 
59101 31FMary CrosbyNorfolk VA11000:45:315200:03:297703:12:433600:02:025102:11:27 06:15:10 
60295 29FJamie WaterhouseWashington DC12500:53:087000:03:536103:07:337900:03:124502:07:45 06:15:29 
61368 35FLauren DanaherCarrollton VA4400:37:004800:03:247303:11:034300:02:167002:22:06 06:15:48 
PlaceBibCoAgSNAMEcity/stateRankSWIMRankT1RankBikeRankT2RankRUNPENALTYTIMEDQ
62220 38FKathy HsuWashington DC11200:46:186100:03:415303:04:484100:02:156702:20:48 06:17:48 
6359 45FNina CronDpo XX9300:42:478400:04:106903:09:396900:02:586402:20:06 06:19:38 
64170 50FMary WagnerVirginia Beach VA9400:42:523600:03:097803:13:003700:02:036202:19:03 06:20:05 
65113 27FAnne Marie CarsonArlington VA10600:44:507300:03:5510303:26:259300:04:073202:01:11 06:20:25 
66117 46FJoyce JonesWashington DC10000:43:424000:03:166403:08:173200:01:577102:23:34 06:20:45 
67325 33FKate BloodMcLean VA3700:36:243400:03:089803:23:323800:02:095802:16:10 06:21:20 
6854 39FKim PerkinsRockville MD10400:44:2710500:04:444002:59:029700:04:307502:25:2100:04:0006:22:03 
69280 58FLynn MattucciArlington VA11300:46:187800:04:018503:15:125400:02:315702:15:54 06:23:55 
7081 26FMolly SchmalzbachArlington VA2100:34:0212500:06:3910203:25:338900:03:536002:17:59 06:28:03 
7152 41FMonique McDonoughWashington DC9600:43:077500:03:575003:03:558300:03:238402:34:09 06:28:29 
72314 54FStephanie ColburnBroadlands VA4200:36:476800:03:4711103:31:575900:02:395402:13:42 06:28:50 
73371 28FHilary HeincerSpringfield VA10900:45:1711200:05:159303:21:277700:03:095502:13:58 06:29:04 
74212 31FCandice PetersArlington VA10700:45:025800:03:387503:11:345200:02:257902:28:10 06:30:47 
7570 31FBeth MeloyWashington DC8700:42:014300:03:189403:21:364200:02:167602:25:24 06:34:32 
76196 53FShirley WoodwardArlington VA10100:43:529400:04:235803:06:105100:02:259102:40:13 06:37:01 
77127 40FSandra CepedaRockville MD1400:32:4610000:04:379903:24:135500:02:318302:33:23 06:37:29 
78213 40FGretchen StoneWarrenton VA12900:57:0313200:08:109603:21:5510400:08:083702:03:25 06:38:39 
79193 30FJaime PooleAlexandria VA3400:36:166500:03:4611303:32:263900:02:137402:24:56 06:39:36 
80382 45FCarrie LudwigKing George VA11100:46:1412600:06:479003:19:5110100:05:127702:27:20 06:45:22 
81470A35FJennifer GibbinsVienna VA11500:47:115100:03:288903:18:251800:01:378702:36:42 06:47:21 
82125 34FRachel LeahyFairfax VA9200:42:268800:04:128603:17:259900:04:438902:38:53 06:47:37 
83307 53FAlison MillerBlanchard MI9800:43:089900:04:3610803:29:277600:03:067802:27:36 06:47:52 
8476 50FCheryl LasherGreenwood Village CO8000:41:2110300:04:4310003:24:209600:04:308502:34:28 06:49:20 
85222 33FKatie MacKintoshWashington DC2600:34:467400:03:5511403:34:147000:02:598602:34:54 06:50:46 
86111 37FJen GreenDerwood MD6900:40:273900:03:126303:07:576400:02:459602:56:43 06:51:03 
8765 48FAlice LoughranWashington DC6500:40:148600:04:1212503:45:504700:02:216602:20:24 06:52:59 
88185 59FCatherine LeeCulpeper VA7200:40:335500:03:3410603:27:465000:02:239002:39:50 06:54:03 
89395 24FJasmine FleenorRoanoke VA11800:48:556900:03:5311803:38:436300:02:456502:20:13 06:54:27 
90107 30FKatherine WilmesAlexandria VA10300:43:535700:03:3612103:40:483300:01:588202:29:40 06:59:53 
91256 40FRebecca BatesLeesburg VA6700:40:2012700:07:0412303:41:3110200:05:288002:29:16 07:03:37 
9237 30FAnne GuzziWashington DC8200:41:3711400:05:2311903:39:385300:02:278802:37:37 07:06:41 
PlaceBibCoAgSNAMEcity/stateRankSWIMRankT1RankBikeRankT2RankRUNPENALTYTIMEDQ
93270 38FGerarda CulipherOakton VA7000:40:2910600:04:5113003:58:288600:03:427202:23:50 07:11:19 
94310 25FMaryanne HullReston VA13100:57:487600:03:5711003:31:34     07:11:48 
95322 38FCynthia HallWoodbridge VA13000:57:4311100:05:1212803:49:137100:02:596902:21:07 07:16:12 
96232 52FAnnette StangMonrovia MD12600:53:2113100:08:0710903:31:168000:03:139302:49:14 07:25:09 
97354 45FAngela DecintFalls Church VA11400:46:2212000:05:4711703:38:3810300:05:599502:51:45 07:28:29 
98383 32FSarah PottertonVirginia Beach VA10800:45:039500:04:2812703:49:02     07:29:09 
99282 52FBarbara ZanottiBurke FL12700:55:0612800:07:1312203:41:1110000:04:579402:49:22 07:37:49 
100237 59FDeb WolfeCentreville VA13201:11:3612900:07:2011503:35:388500:03:369202:45:31 07:43:40 
101335 51FHope MegonigalVienna VA5800:38:4511000:05:0911603:37:426600:02:4710003:20:27 07:44:48 
102351 33FElizabeth FoxAlexandria VA12800:56:5511500:05:2312603:45:579000:03:569702:58:27 07:50:35 
103471A36FKatie HeroldFairfax VA7900:41:1910100:04:3812903:53:389200:04:049903:16:12 07:59:49 
104168 35FElynn WalterWashington DC12400:51:4613000:07:3013204:12:198200:03:189803:02:22 08:17:14 

** Results are for the private use of participants and are the Intellectual Property of Set Up Events. Unauthorized use of these results is prohibited.